Terminal Aerodrome Forecast
Issued by NWS

Home | Current Version | Previous Version | Text Only | Print | Product List | Glossary On
Versions: 1 2 3 4 5 6 7 8 9 10 11 12 13 14 15 16 17 18 19 20 21 22 23 24 25 26 27 28 29
000
FTUS41 KBOX 040428 AAB
TAFACK
TAF AMD
KACK 040428Z 0404/0424 18015G23KT 5SM -RA BR SCT006 OVC015
     FM040600 19016G24KT 5SM -RA BR OVC005 WS020/20045KT
     FM041000 23016G23KT 5SM -RA BR OVC008
     FM041800 25011G21KT 6SM BR OVC015
     FM042200 26010KT 6SM BR OVC015=

USA.gov is the U.S. government's official web portal to all federal, state and local government web resources and services.